Time;durP1;ratioP1;P1;durP2;ratioP2;P2;SDS_P1;SDS_P2;PMS_P1;PMS_P2;Temp;Humidity;BMP_temperature;BMP_pressure;BME280_temperature;BME280_humidity;BME280_pressure;Samples;Min_cycle;Max_cycle;Signal;HPM_P1;HPM_P2
2023/02/17 00:00:04;;;;;;;22.73;14.07;;;;;;;7.49;62.81;98446.00;10470788;28;20052;-75
2023/02/17 00:05:45;;;;;;;24.88;15.00;;;;;;;7.45;63.11;98421.38;10485361;28;20045;-75
2023/02/17 00:11:07;;;;;;;23.02;14.60;;;;;;;7.43;63.08;98414.88;10496847;28;20489;-74
2023/02/17 00:16:28;;;;;;;27.55;16.15;;;;;;;7.39;63.48;98414.53;10482694;28;20501;-75
2023/02/17 00:21:51;;;;;;;24.70;15.80;;;;;;;7.37;63.09;98417.13;10469011;28;20044;-74
2023/02/17 00:27:12;;;;;;;28.83;17.70;;;;;;;7.32;63.63;98409.72;10469043;28;20051;-74
2023/02/17 00:32:33;;;;;;;27.15;16.98;;;;;;;7.21;63.78;98393.44;10468718;28;20411;-74
2023/02/17 00:37:54;;;;;;;25.23;15.90;;;;;;;7.14;63.58;98398.44;10468373;28;20114;-74
2023/02/17 00:43:15;;;;;;;26.70;16.50;;;;;;;7.09;64.10;98388.25;10482373;28;20048;-75
2023/02/17 00:48:36;;;;;;;25.38;15.55;;;;;;;7.05;63.82;98392.72;10468206;28;20398;-75
2023/02/17 00:53:57;;;;;;;26.92;14.88;;;;;;;6.99;64.04;98392.88;10465331;28;20052;-75
2023/02/17 00:59:18;;;;;;;25.38;16.00;;;;;;;6.86;64.27;98395.84;10490100;28;20052;-74
2023/02/17 01:04:39;;;;;;;29.70;16.83;;;;;;;6.71;64.37;98395.84;10448563;28;20053;-75
2023/02/17 01:10:01;;;;;;;25.42;16.45;;;;;;;6.56;64.47;98388.97;10436429;28;20041;-74
2023/02/17 01:15:22;;;;;;;26.95;16.08;;;;;;;6.44;64.53;98382.28;10461970;28;20062;-74
2023/02/17 01:20:42;;;;;;;27.27;16.60;;;;;;;6.37;64.76;98377.47;10475647;28;20040;-74
2023/02/17 01:26:03;;;;;;;25.15;15.27;;;;;;;6.35;64.88;98374.50;10502549;28;20051;-74
2023/02/17 01:31:26;;;;;;;25.42;15.60;;;;;;;6.29;64.70;98365.63;10475205;28;20040;-74
2023/02/17 01:36:47;;;;;;;24.27;15.43;;;;;;;6.20;65.29;98349.53;10474778;28;20052;-74
2023/02/17 01:42:15;;;;;;;25.52;16.08;;;;;;;6.12;65.21;98346.72;10474172;28;20044;-74
2023/02/17 01:47:37;;;;;;;27.10;16.95;;;;;;;6.03;65.72;98345.22;10474142;28;20045;-74
2023/02/17 01:52:57;;;;;;;25.27;15.98;;;;;;;5.98;65.75;98331.53;10473611;28;20040;-74
2023/02/17 01:58:19;;;;;;;28.33;16.60;;;;;;;5.96;65.54;98323.75;10456893;28;20041;-74
2023/02/17 02:03:40;;;;;;;27.83;16.38;;;;;;;5.93;65.78;98322.09;10486703;28;20498;-74
2023/02/17 02:09:10;;;;;;;26.15;16.48;;;;;;;5.97;65.81;98324.50;10458022;28;20043;-74
2023/02/17 02:14:30;;;;;;;24.27;15.27;;;;;;;6.00;65.32;98317.88;10486677;28;20055;-74
2023/02/17 02:20:16;;;;;;;22.77;14.20;;;;;;;5.97;65.49;98300.28;10417745;28;20368;-74
2023/02/17 02:26:18;;;;;;;24.10;14.98;;;;;;;6.03;66.18;98294.59;10462473;28;20060;-75
2023/02/17 02:32:04;;;;;;;26.67;15.93;;;;;;;6.06;65.61;98287.19;10468363;28;20076;-74
2023/02/17 02:37:28;;;;;;;23.55;14.65;;;;;;;6.03;65.56;98281.47;10481162;28;20051;-75
2023/02/17 02:42:49;;;;;;;25.73;15.90;;;;;;;6.00;65.87;98271.50;10467783;28;20036;-75
2023/02/17 02:48:10;;;;;;;24.60;15.27;;;;;;;6.06;65.77;98273.34;10453171;28;20044;-75
2023/02/17 02:53:49;;;;;;;24.73;15.65;;;;;;;6.12;65.60;98279.47;10439694;28;20059;-74
2023/02/17 02:59:17;;;;;;;24.90;15.20;;;;;;;6.17;65.67;98256.34;10480759;28;20043;-74
2023/02/17 03:04:53;;;;;;;26.38;15.82;;;;;;;6.19;65.51;98245.47;10471711;28;20048;-74
2023/02/17 03:10:14;;;;;;;25.60;16.48;;;;;;;6.22;65.77;98238.81;10494709;28;20094;-75
2023/02/17 03:15:35;;;;;;;26.55;16.27;;;;;;;6.23;65.83;98227.16;10481260;28;20036;-74
2023/02/17 03:20:57;;;;;;;30.15;16.42;;;;;;;6.31;65.74;98229.94;10470930;28;20048;-74
2023/02/17 03:26:18;;;;;;;25.20;15.18;;;;;;;6.34;65.74;98228.84;10486269;28;20063;-74
2023/02/17 03:31:39;;;;;;;26.67;16.55;;;;;;;6.38;65.50;98215.34;10470089;28;20041;-74
2023/02/17 03:37:01;;;;;;;22.30;14.75;;;;;;;6.51;65.53;98200.53;10469975;28;20044;-74
2023/02/17 03:42:22;;;;;;;25.38;14.55;;;;;;;6.60;65.64;98217.38;10498016;28;20394;-74
2023/02/17 03:47:43;;;;;;;21.65;13.65;;;;;;;6.69;65.48;98224.38;10483194;28;20037;-74
2023/02/17 03:53:04;;;;;;;22.83;14.20;;;;;;;6.76;65.24;98212.53;10469393;28;20094;-75
2023/02/17 03:58:25;;;;;;;26.15;15.38;;;;;;;6.77;65.29;98208.47;10483189;28;20055;-74
2023/02/17 04:03:46;;;;;;;25.08;13.88;;;;;;;6.81;65.37;98205.31;10482939;28;20056;-74
2023/02/17 04:09:07;;;;;;;22.55;14.02;;;;;;;6.79;65.07;98221.78;10454870;28;20063;-74
2023/02/17 04:14:28;;;;;;;21.77;14.27;;;;;;;6.83;65.19;98214.53;10468904;28;20052;-74
2023/02/17 04:19:48;;;;;;;26.48;14.15;;;;;;;6.85;65.02;98203.63;10468780;28;20475;-74
2023/02/17 04:25:10;;;;;;;21.52;14.60;;;;;;;6.89;65.21;98203.25;10466866;28;20059;-74
2023/02/17 04:30:30;;;;;;;20.88;12.10;;;;;;;6.95;64.95;98186.38;10486939;28;20051;-74
2023/02/17 04:35:58;;;;;;;18.75;11.30;;;;;;;7.01;65.08;98176.56;10463140;28;20040;-74
2023/02/17 04:41:19;;;;;;;18.98;11.10;;;;;;;7.10;64.82;98167.66;10464702;28;20474;-74
2023/02/17 04:46:40;;;;;;;17.63;10.70;;;;;;;7.18;64.53;98168.34;10476520;28;20040;-74
2023/02/17 04:52:01;;;;;;;18.10;11.88;;;;;;;7.21;64.23;98165.75;10476204;28;20471;-74
2023/02/17 04:57:23;;;;;;;16.08;9.68;;;;;;;7.24;64.31;98172.94;10448691;28;20057;-74
2023/02/17 05:02:43;;;;;;;14.73;8.65;;;;;;;7.27;63.86;98174.63;10462049;28;20530;-74
2023/02/17 05:08:05;;;;;;;11.60;8.20;;;;;;;7.35;64.01;98167.72;10461943;28;20068;-74
2023/02/17 05:13:26;;;;;;;11.43;7.93;;;;;;;7.45;63.82;98170.66;10460869;28;20040;-75
2023/02/17 05:18:48;;;;;;;12.82;8.18;;;;;;;7.52;63.65;98175.41;10429418;28;20097;-75
2023/02/17 05:24:11;;;;;;;15.80;8.37;;;;;;;7.54;63.79;98172.81;10462769;28;20395;-75
2023/02/17 05:29:33;;;;;;;11.52;7.22;;;;;;;7.57;63.56;98185.56;10449211;28;20045;-75
2023/02/17 05:34:54;;;;;;;15.90;7.68;;;;;;;7.60;63.50;98167.03;10473246;28;20092;-75
2023/02/17 05:40:15;;;;;;;16.13;7.68;;;;;;;7.65;63.69;98174.41;10459213;28;20048;-75
2023/02/17 05:45:37;;;;;;;11.75;7.05;;;;;;;7.65;63.97;98172.38;10474278;28;20448;-74
2023/02/17 05:50:57;;;;;;;10.23;6.40;;;;;;;7.65;63.82;98147.38;10473901;28;20123;-75
2023/02/17 05:56:19;;;;;;;13.07;7.63;;;;;;;7.66;64.00;98162.72;10459509;28;20478;-75
2023/02/17 06:01:40;;;;;;;13.38;7.03;;;;;;;7.65;64.37;98155.72;10447876;28;20064;-75
2023/02/17 06:07:01;;;;;;;10.43;7.22;;;;;;;7.71;64.29;98158.97;10456563;28;20044;-77
2023/02/17 06:12:23;;;;;;;12.85;6.75;;;;;;;7.76;63.87;98160.06;10487472;28;20067;-75
2023/02/17 06:17:45;;;;;;;11.30;6.88;;;;;;;7.77;64.10;98158.03;10462690;28;20049;-75
2023/02/17 06:23:06;;;;;;;12.65;7.13;;;;;;;7.82;64.03;98176.53;10417147;28;20403;-74
2023/02/17 06:28:27;;;;;;;10.85;6.32;;;;;;;7.82;64.66;98162.66;10430333;28;20044;-75
2023/02/17 06:33:48;;;;;;;12.63;7.20;;;;;;;7.82;64.42;98177.28;10445975;28;20045;-75
2023/02/17 06:39:09;;;;;;;11.52;6.78;;;;;;;7.84;64.36;98155.22;10430895;28;20099;-75
2023/02/17 06:44:30;;;;;;;13.18;7.30;;;;;;;7.88;64.68;98168.69;10430715;28;20395;-75
2023/02/17 06:49:51;;;;;;;11.70;6.18;;;;;;;7.94;64.36;98177.56;10456530;28;20040;-75
2023/02/17 06:55:12;;;;;;;9.45;5.80;;;;;;;7.95;65.12;98176.25;10481997;28;20120;-75
2023/02/17 07:00:35;;;;;;;12.98;6.90;;;;;;;7.99;64.65;98173.81;10455322;28;20049;-75
2023/02/17 07:05:57;;;;;;;10.00;6.15;;;;;;;8.00;65.77;98169.72;10469032;28;20174;-75
2023/02/17 07:11:18;;;;;;;10.27;5.78;;;;;;;8.04;65.47;98170.06;10471705;28;20041;-75
2023/02/17 07:16:40;;;;;;;10.73;5.65;;;;;;;8.08;66.39;98166.88;10472637;28;20504;-75
2023/02/17 07:22:01;;;;;;;7.88;4.97;;;;;;;8.15;66.47;98161.25;10450855;28;20050;-75
2023/02/17 07:27:23;;;;;;;8.20;5.07;;;;;;;8.23;66.86;98169.56;10456371;28;20041;-75
2023/02/17 07:32:44;;;;;;;9.80;4.40;;;;;;;8.27;67.00;98178.22;10469922;28;20037;-73
2023/02/17 07:38:07;;;;;;;6.38;4.70;;;;;;;8.34;66.63;98166.28;10456176;28;20044;-72
2023/02/17 07:43:28;;;;;;;8.68;4.70;;;;;;;8.49;67.13;98165.44;10470313;28;20063;-72
2023/02/17 07:48:50;;;;;;;8.68;4.60;;;;;;;8.56;67.58;98175.75;10455676;28;20040;-72
2023/02/17 07:54:12;;;;;;;6.45;4.30;;;;;;;8.61;67.50;98174.78;10469346;28;20116;-72
2023/02/17 07:59:33;;;;;;;7.57;4.40;;;;;;;8.65;67.86;98174.38;10483201;28;20044;-73
2023/02/17 08:04:55;;;;;;;8.60;4.75;;;;;;;8.75;67.69;98164.06;10460319;28;20057;-72
2023/02/17 08:15:55;;;;;;;7.75;4.90;;;;;;;8.93;67.37;98165.53;10485182;28;20071;-72
2023/02/17 08:21:16;;;;;;;9.38;5.05;;;;;;;8.97;67.56;98176.25;10482869;28;20041;-72
2023/02/17 08:26:37;;;;;;;9.27;5.40;;;;;;;9.06;67.64;98167.25;10468404;28;20420;-72
2023/02/17 08:31:58;;;;;;;10.82;4.80;;;;;;;9.07;67.15;98163.91;10454804;28;20441;-72
2023/02/17 08:37:20;;;;;;;9.32;4.80;;;;;;;9.08;66.83;98161.84;10482086;28;20135;-72
2023/02/17 08:42:41;;;;;;;10.73;5.50;;;;;;;9.15;66.62;98161.00;10482307;28;20506;-72
2023/02/17 08:48:03;;;;;;;7.80;5.07;;;;;;;9.16;66.50;98145.78;10482232;28;20040;-72
2023/02/17 08:53:24;;;;;;;11.25;5.22;;;;;;;9.16;66.13;98154.13;10495990;28;20044;-73
2023/02/17 08:58:45;;;;;;;8.52;4.60;;;;;;;9.11;66.54;98149.56;10468338;28;20045;-73
2023/02/17 09:04:07;;;;;;;8.43;5.05;;;;;;;9.11;66.12;98130.81;10494022;28;20102;-73
2023/02/17 09:09:30;;;;;;;9.15;4.35;;;;;;;9.09;66.21;98127.13;10451892;28;20057;-73
2023/02/17 09:14:51;;;;;;;8.27;4.30;;;;;;;9.05;66.32;98138.66;10454635;28;20040;-75
2023/02/17 09:20:12;;;;;;;7.53;4.30;;;;;;;9.10;66.52;98123.03;10433825;28;20050;-75
2023/02/17 09:25:44;;;;;;;10.63;4.88;;;;;;;9.27;66.20;98134.13;10447551;28;20047;-75
2023/02/17 09:31:19;;;;;;;9.65;4.05;;;;;;;9.39;65.89;98142.72;10433664;28;20429;-75
2023/02/17 09:36:41;;;;;;;7.07;4.25;;;;;;;9.40;65.50;98149.75;10433761;28;20514;-76
2023/02/17 09:42:02;;;;;;;5.88;3.90;;;;;;;9.42;66.21;98142.28;10447442;28;20052;-74
2023/02/17 09:47:26;;;;;;;7.55;3.97;;;;;;;9.41;65.78;98146.38;10460693;28;20060;-75
2023/02/17 09:52:52;;;;;;;8.57;4.40;;;;;;;9.44;65.39;98150.06;10432803;28;20041;-75
2023/02/17 09:58:19;;;;;;;7.35;3.95;;;;;;;9.40;66.12;98150.47;10432674;28;20060;-75
2023/02/17 10:04:08;;;;;;;6.72;3.88;;;;;;;9.38;65.82;98144.03;10418519;28;20442;-75
2023/02/17 10:09:48;;;;;;;9.90;4.28;;;;;;;9.43;65.66;98138.19;10409728;28;20056;-75
2023/02/17 10:15:15;;;;;;;8.18;4.80;;;;;;;9.49;65.85;98142.75;10431644;28;20044;-75
2023/02/17 10:20:42;;;;;;;9.10;4.20;;;;;;;9.41;65.60;98123.34;10445545;28;20192;-72
2023/02/17 10:26:25;;;;;;;6.07;3.42;;;;;;;9.43;65.88;98134.66;10444593;28;20037;-72
2023/02/17 10:31:53;;;;;;;8.43;3.38;;;;;;;9.51;65.71;98120.63;10444893;28;20045;-72
2023/02/17 10:37:46;;;;;;;6.28;3.88;;;;;;;9.63;65.57;98105.56;10445012;28;20049;-72
2023/02/17 10:43:07;;;;;;;7.45;3.90;;;;;;;9.81;65.12;98105.47;10444465;28;20045;-72
2023/02/17 10:48:37;;;;;;;4.15;2.88;;;;;;;9.91;65.44;98084.69;10430594;28;20037;-72
2023/02/17 10:54:06;;;;;;;6.78;3.13;;;;;;;10.21;65.03;98077.09;10446380;28;20483;-73
2023/02/17 10:59:31;;;;;;;4.90;2.67;;;;;;;10.73;64.89;98049.56;10446171;28;20055;-73
2023/02/17 11:04:55;;;;;;;5.10;2.20;;;;;;;11.53;63.22;98039.03;10449928;28;20873;-73
2023/02/17 11:10:24;;;;;;;4.95;2.70;;;;;;;12.16;61.05;98039.75;10457586;28;20163;-74
2023/02/17 11:15:45;;;;;;;4.85;2.38;;;;;;;11.99;60.28;98033.09;10443163;28;20106;-74
2023/02/17 11:21:09;;;;;;;4.72;2.15;;;;;;;11.53;61.13;98015.94;10470932;28;20087;-75
2023/02/17 11:26:32;;;;;;;3.25;1.85;;;;;;;11.18;61.81;97994.75;10443198;28;20391;-76
2023/02/17 11:31:57;;;;;;;4.10;2.08;;;;;;;11.10;62.43;98004.66;10442852;28;20532;-76
2023/02/17 11:37:20;;;;;;;4.45;2.20;;;;;;;10.78;62.59;98011.47;10442856;28;20044;-76
2023/02/17 11:42:41;;;;;;;4.82;2.33;;;;;;;10.58;63.38;97997.53;10442328;28;20045;-76
2023/02/17 11:48:11;;;;;;;3.63;2.50;;;;;;;10.65;63.81;97984.75;10442201;28;20182;-75
2023/02/17 11:53:48;;;;;;;6.07;2.22;;;;;;;10.80;64.04;97969.72;10442145;28;20048;-75
2023/02/17 11:59:16;;;;;;;4.65;2.10;;;;;;;10.82;64.29;97965.03;10456531;28;20036;-75
2023/02/17 12:04:49;;;;;;;4.90;2.30;;;;;;;10.86;64.42;97951.34;10455377;28;20509;-74
2023/02/17 12:10:32;;;;;;;4.65;1.65;;;;;;;10.86;64.54;97984.13;10455321;28;20442;-74
2023/02/17 12:16:21;;;;;;;2.58;1.65;;;;;;;10.82;65.02;97965.03;10455052;28;20457;-74
2023/02/17 12:21:48;;;;;;;5.32;2.42;;;;;;;10.81;65.10;97960.03;10442038;28;20052;-74
2023/02/17 12:27:21;;;;;;;7.13;2.45;;;;;;;10.93;65.25;97924.56;10455086;28;20048;-74
2023/02/17 12:32:55;;;;;;;3.97;1.92;;;;;;;11.10;65.03;97929.94;10455745;28;20048;-74
2023/02/17 12:38:17;;;;;;;3.35;1.88;;;;;;;11.32;64.54;97913.22;10454707;28;20487;-73
2023/02/17 12:44:02;;;;;;;3.70;1.80;;;;;;;11.47;64.15;97924.00;10447343;28;20082;-74
2023/02/17 12:49:41;;;;;;;3.22;1.83;;;;;;;11.42;64.15;97925.81;10481954;28;20044;-74
2023/02/17 12:55:17;;;;;;;4.25;1.80;;;;;;;11.41;64.26;97906.84;10448906;28;20045;-74
2023/02/17 13:00:43;;;;;;;3.55;1.45;;;;;;;11.18;64.61;97908.13;10482347;28;20047;-73
2023/02/17 13:06:31;;;;;;;3.08;1.80;;;;;;;10.97;65.38;97901.78;10487085;28;20036;-73
2023/02/17 13:11:52;;;;;;;5.15;1.73;;;;;;;10.81;65.93;97890.25;10488786;28;20048;-72
2023/02/17 13:17:22;;;;;;;2.88;1.77;;;;;;;10.71;67.11;97892.31;10502373;28;20044;-72
2023/02/17 13:22:43;;;;;;;3.28;2.03;;;;;;;10.66;67.22;97879.41;10502736;28;20039;-73
2023/02/17 13:28:33;;;;;;;4.30;1.50;;;;;;;10.69;67.71;97878.22;10487954;28;20086;-73
2023/02/17 13:33:56;;;;;;;6.15;1.77;;;;;;;10.65;67.79;97894.69;10500821;28;20447;-73
2023/02/17 13:39:26;;;;;;;3.22;1.90;;;;;;;10.58;68.27;97868.41;10474592;28;20040;-73
2023/02/17 13:44:49;;;;;;;3.22;1.70;;;;;;;10.66;68.71;97891.31;10492640;28;20509;-73
2023/02/17 13:50:36;;;;;;;2.63;1.60;;;;;;;10.80;68.58;97860.81;10479715;28;20047;-73
2023/02/17 13:56:00;;;;;;;3.70;1.60;;;;;;;10.88;68.66;97836.25;10473863;28;20106;-73
2023/02/17 14:01:25;;;;;;;3.78;1.80;;;;;;;10.96;68.56;97859.16;10443909;28;20091;-74
2023/02/17 14:06:48;;;;;;;2.92;1.80;;;;;;;10.79;69.19;97843.34;10432715;28;20408;-76
2023/02/17 14:12:18;;;;;;;4.28;1.80;;;;;;;10.79;70.16;97823.78;10432097;28;20041;-77
2023/02/17 14:17:39;;;;;;;2.83;1.35;;;;;;;10.87;69.90;97810.38;10446197;28;20387;-77
2023/02/17 14:23:05;;;;;;;2.28;1.08;;;;;;;11.01;70.08;97819.00;10418999;28;20095;-78
2023/02/17 14:28:27;;;;;;;4.00;1.13;;;;;;;11.08;69.89;97804.09;10445179;28;20044;-74
2023/02/17 14:34:01;;;;;;;3.28;1.35;;;;;;;10.92;70.14;97791.13;10431261;28;20040;-73
2023/02/17 14:39:22;;;;;;;2.17;1.00;;;;;;;10.85;70.40;97787.91;10444726;28;20380;-74
2023/02/17 14:44:43;;;;;;;1.65;0.82;;;;;;;10.80;70.46;97765.91;10458191;28;20044;-74
2023/02/17 14:50:06;;;;;;;1.75;0.80;;;;;;;10.73;70.89;97745.22;10401757;28;20127;-77
2023/02/17 14:55:34;;;;;;;3.30;1.15;;;;;;;10.68;71.08;97760.22;10417230;28;20052;-77
2023/02/17 15:00:55;;;;;;;2.33;0.95;;;;;;;10.65;71.35;97763.50;10431112;28;20052;-78
2023/02/17 15:06:37;;;;;;;4.80;1.00;;;;;;;10.55;71.68;97746.78;10430068;28;20053;-77
2023/02/17 15:11:59;;;;;;;3.00;1.05;;;;;;;10.54;72.08;97737.69;10454071;28;20532;-77
2023/02/17 15:17:20;;;;;;;2.67;1.08;;;;;;;10.50;72.10;97731.09;10471031;28;20041;-78
2023/02/17 15:22:41;;;;;;;1.88;0.80;;;;;;;10.50;72.44;97761.78;10456912;28;20047;-77
2023/02/17 15:28:03;;;;;;;1.58;0.90;;;;;;;10.46;72.31;97736.41;10456737;28;20044;-77
2023/02/17 15:33:24;;;;;;;1.52;0.80;;;;;;;10.48;72.88;97719.78;10457081;28;20105;-77
2023/02/17 15:38:45;;;;;;;2.35;0.80;;;;;;;10.42;73.16;97700.59;10484984;28;20057;-76
2023/02/17 15:44:11;;;;;;;1.90;0.80;;;;;;;10.41;73.34;97709.53;10458343;28;20040;-77
2023/02/17 15:49:32;;;;;;;2.50;1.05;;;;;;;10.35;73.53;97695.94;10472206;28;20037;-77
2023/02/17 15:54:53;;;;;;;1.77;0.90;;;;;;;10.32;73.79;97727.78;10455752;28;20040;-77
2023/02/17 16:00:22;;;;;;;2.47;1.27;;;;;;;10.26;74.70;97747.66;10455527;28;20071;-78
2023/02/17 16:05:43;;;;;;;2.50;1.30;;;;;;;10.25;74.92;97731.50;10482233;28;20056;-77
2023/02/17 16:11:04;;;;;;;2.72;1.30;;;;;;;10.24;75.02;97716.09;10455490;28;20064;-77
2023/02/17 16:16:33;;;;;;;2.25;1.15;;;;;;;10.22;75.64;97735.47;10456574;28;20037;-77
2023/02/17 16:21:53;;;;;;;6.55;1.08;;;;;;;10.22;75.73;97739.00;10483005;28;20067;-76
2023/02/17 16:27:15;;;;;;;3.65;1.27;;;;;;;10.23;76.24;97745.31;10495702;28;20051;-74
2023/02/17 16:32:36;;;;;;;2.65;1.35;;;;;;;10.24;76.18;97746.78;10468866;28;20044;-76
2023/02/17 16:38:06;;;;;;;2.53;1.17;;;;;;;10.13;76.67;97736.94;10455151;28;20111;-75
2023/02/17 16:43:29;;;;;;;1.67;0.82;;;;;;;10.00;76.93;97743.75;10468797;28;20055;-76
2023/02/17 16:48:50;;;;;;;2.00;1.08;;;;;;;9.97;77.50;97733.78;10455050;28;20063;-75
2023/02/17 16:54:11;;;;;;;2.17;1.10;;;;;;;10.00;78.08;97749.31;10496173;28;20048;-74
2023/02/17 16:59:32;;;;;;;4.03;0.90;;;;;;;10.01;77.80;97750.78;10482030;28;20048;-74
2023/02/17 17:04:53;;;;;;;1.98;1.00;;;;;;;10.02;77.86;97755.03;10481337;28;20060;-74
2023/02/17 17:10:17;;;;;;;1.88;1.00;;;;;;;10.03;77.46;97758.56;10481613;28;20041;-74
2023/02/17 17:15:44;;;;;;;2.47;1.08;;;;;;;10.03;77.97;97750.91;10482391;28;20064;-76
2023/02/17 17:21:12;;;;;;;2.03;1.20;;;;;;;10.03;78.04;97750.19;10481646;28;20072;-76
2023/02/17 17:26:42;;;;;;;3.83;1.50;;;;;;;10.00;77.88;97760.47;10482276;28;20052;-76
2023/02/17 17:32:04;;;;;;;4.63;1.55;;;;;;;9.98;77.88;97759.59;10481419;28;20040;-76
2023/02/17 17:37:25;;;;;;;2.63;0.95;;;;;;;10.01;78.07;97733.31;10457693;28;20041;-77
2023/02/17 17:42:46;;;;;;;1.85;1.00;;;;;;;10.02;77.60;97743.88;10488401;28;20045;-76
2023/02/17 17:48:11;;;;;;;1.33;1.00;;;;;;;10.09;77.75;97745.03;10474478;28;20053;-75
2023/02/17 17:53:32;;;;;;;1.13;0.70;;;;;;;10.07;77.58;97783.94;10488288;28;20069;-75
2023/02/17 17:58:53;;;;;;;1.80;0.93;;;;;;;10.10;77.06;97777.19;10482809;28;20072;-75
2023/02/17 18:04:14;;;;;;;3.25;0.95;;;;;;;10.12;77.22;97784.97;10472747;28;20060;-78
2023/02/17 18:09:35;;;;;;;2.70;0.90;;;;;;;10.10;77.13;97807.13;10473321;28;20080;-78
2023/02/17 18:14:56;;;;;;;1.75;1.08;;;;;;;10.09;77.17;97805.66;10459628;28;20045;-77
2023/02/17 18:20:17;;;;;;;0.90;0.70;;;;;;;10.15;77.42;97825.63;10459213;28;20040;-75
2023/02/17 18:25:37;;;;;;;1.67;1.10;;;;;;;10.25;77.37;97823.56;10473093;28;20048;-75
2023/02/17 18:30:58;;;;;;;1.92;0.80;;;;;;;10.38;76.86;97833.50;10460093;28;20047;-76
2023/02/17 18:36:22;;;;;;;1.58;0.88;;;;;;;10.56;76.74;97815.97;10461161;28;20036;-75
2023/02/17 18:41:43;;;;;;;1.45;0.90;;;;;;;10.52;76.16;97787.78;10458443;28;20041;-75
2023/02/17 18:47:04;;;;;;;2.38;1.00;;;;;;;10.37;76.79;97815.31;10457525;28;20040;-76
2023/02/17 18:52:25;;;;;;;1.90;1.17;;;;;;;10.32;77.26;97825.44;10456928;28;20390;-76
2023/02/17 18:57:46;;;;;;;2.00;1.00;;;;;;;10.35;77.56;97809.59;10457382;28;20445;-74
2023/02/17 19:03:07;;;;;;;2.17;0.90;;;;;;;10.38;77.35;97809.13;10457250;28;20102;-75
2023/02/17 19:08:27;;;;;;;3.15;1.15;;;;;;;10.37;77.79;97810.47;10470852;28;20401;-74
2023/02/17 19:13:48;;;;;;;3.03;0.70;;;;;;;10.49;77.81;97833.63;10442317;28;20501;-78
2023/02/17 19:19:09;;;;;;;1.58;1.00;;;;;;;10.65;77.37;97825.63;10429740;28;20091;-78
2023/02/17 19:24:30;;;;;;;1.90;0.80;;;;;;;10.70;77.21;97826.63;10455755;28;20049;-77
2023/02/17 19:29:52;;;;;;;2.25;0.80;;;;;;;10.72;77.18;97810.78;10470533;28;20044;-78
2023/02/17 19:35:14;;;;;;;1.65;0.98;;;;;;;10.70;77.09;97819.00;10470315;28;20094;-78
2023/02/17 19:40:35;;;;;;;2.97;0.73;;;;;;;10.64;77.67;97840.19;10456992;28;20048;-78
2023/02/17 19:45:57;;;;;;;1.85;0.88;;;;;;;10.53;77.91;97800.44;10446262;28;20056;-77
2023/02/17 19:51:18;;;;;;;1.60;0.80;;;;;;;10.60;77.89;97804.34;10470078;28;20046;-78
2023/02/17 19:56:39;;;;;;;1.25;0.70;;;;;;;10.68;77.91;97804.16;10437980;28;20049;-77
2023/02/17 20:02:00;;;;;;;2.55;0.77;;;;;;;10.76;77.86;97808.25;10414341;28;20080;-77
2023/02/17 20:07:21;;;;;;;4.72;0.90;;;;;;;10.83;77.50;97826.16;10414913;28;20052;-77
2023/02/17 20:12:42;;;;;;;1.60;1.00;;;;;;;10.84;77.52;97813.66;10414275;28;20045;-77
2023/02/17 20:18:02;;;;;;;1.50;0.80;;;;;;;10.90;77.53;97797.28;10428569;28;20047;-78
2023/02/17 20:23:24;;;;;;;2.50;1.10;;;;;;;10.94;77.19;97799.63;10443091;28;20044;-78
2023/02/17 20:28:44;;;;;;;4.15;0.90;;;;;;;10.96;76.97;97816.53;10454473;28;20118;-78
2023/02/17 20:34:07;;;;;;;1.35;0.70;;;;;;;10.92;76.79;97808.63;10468959;28;20098;-77
2023/02/17 20:39:28;;;;;;;1.20;0.70;;;;;;;10.93;76.51;97829.63;10459843;28;20150;-78
2023/02/17 20:44:49;;;;;;;1.60;0.73;;;;;;;11.05;75.93;97819.25;10455698;28;20040;-77
2023/02/17 20:50:14;;;;;;;1.48;0.90;;;;;;;11.03;75.73;97821.91;10449986;28;20040;-77
2023/02/17 20:55:35;;;;;;;2.55;1.00;;;;;;;11.07;75.48;97827.03;10438863;28;20068;-76
2023/02/17 21:00:56;;;;;;;1.20;0.60;;;;;;;11.13;75.25;97807.91;10451852;28;20044;-76
2023/02/17 21:06:31;;;;;;;1.10;0.60;;;;;;;11.20;75.03;97825.81;10452218;28;20070;-76
2023/02/17 21:11:52;;;;;;;0.90;0.47;;;;;;;11.21;75.18;97838.44;10461797;28;20037;-76
2023/02/17 21:17:13;;;;;;;1.30;0.50;;;;;;;11.21;75.22;97850.34;10434510;28;20045;-76
2023/02/17 21:22:34;;;;;;;1.08;0.50;;;;;;;11.22;75.25;97876.22;10420463;28;20049;-75
2023/02/17 21:27:55;;;;;;;0.80;0.50;;;;;;;11.18;75.42;97859.91;10447846;28;20041;-75
2023/02/17 21:33:16;;;;;;;0.73;0.50;;;;;;;11.19;75.39;97869.75;10433531;28;20056;-75
2023/02/17 21:38:36;;;;;;;1.75;0.50;;;;;;;11.16;75.55;97862.56;10420349;28;20037;-75
2023/02/17 21:49:38;;;;;;;1.65;0.60;;;;;;;11.10;75.85;97865.69;10437490;28;20102;-75
2023/02/17 21:54:59;;;;;;;1.13;0.40;;;;;;;11.09;75.76;97850.25;10444543;28;20052;-75
2023/02/17 22:00:20;;;;;;;1.00;0.57;;;;;;;11.06;75.90;97859.81;10460965;28;20049;-75
2023/02/17 22:05:41;;;;;;;0.90;0.45;;;;;;;11.02;75.81;97859.56;10485658;28;20068;-75
2023/02/17 22:11:02;;;;;;;1.30;0.68;;;;;;;11.08;75.81;97884.38;10487541;28;20052;-75
2023/02/17 22:16:23;;;;;;;0.60;0.40;;;;;;;11.08;75.39;97893.47;10488291;28;20044;-75
2023/02/17 22:21:44;;;;;;;1.70;0.50;;;;;;;11.10;75.99;97895.69;10458938;28;20433;-75
2023/02/17 22:27:05;;;;;;;0.82;0.55;;;;;;;11.09;76.42;97908.19;10461779;28;20066;-74
2023/02/17 22:32:26;;;;;;;1.30;0.63;;;;;;;11.03;77.03;97927.34;10488149;28;20098;-74
2023/02/17 22:37:48;;;;;;;1.02;0.50;;;;;;;11.02;78.01;97942.63;10486706;28;20490;-75
2023/02/17 22:43:11;;;;;;;1.65;0.70;;;;;;;10.96;78.10;97956.16;10486282;28;20040;-74
2023/02/17 22:48:33;;;;;;;2.65;0.88;;;;;;;10.91;78.04;97980.31;10486042;28;20045;-74
2023/02/17 22:53:54;;;;;;;1.80;0.90;;;;;;;10.85;78.76;97996.63;10486054;28;20043;-75
2023/02/17 22:59:15;;;;;;;5.10;2.65;;;;;;;10.71;79.88;97988.00;10486161;28;20055;-75
2023/02/17 23:04:36;;;;;;;5.05;2.28;;;;;;;10.64;80.24;98002.09;10471362;28;20048;-75
2023/02/17 23:09:56;;;;;;;4.75;2.10;;;;;;;10.57;80.38;97987.69;10485088;28;20044;-74
2023/02/17 23:15:18;;;;;;;0.80;0.40;;;;;;;10.44;80.78;97979.78;10484930;28;20470;-75
2023/02/17 23:20:40;;;;;;;0.93;0.30;;;;;;;10.39;81.82;98011.50;10498465;28;20044;-74
2023/02/17 23:26:01;;;;;;;1.20;0.50;;;;;;;10.31;83.17;98003.28;10484820;28;20048;-75
2023/02/17 23:31:22;;;;;;;2.83;0.90;;;;;;;10.21;83.03;97999.72;10498586;28;20049;-75
2023/02/17 23:36:44;;;;;;;2.53;0.60;;;;;;;10.16;83.62;97992.41;10483779;28;20044;-74
2023/02/17 23:42:05;;;;;;;2.55;0.60;;;;;;;10.12;85.51;97999.72;10484811;28;20051;-75
2023/02/17 23:47:26;;;;;;;1.25;0.65;;;;;;;10.03;85.54;98007.50;10471125;28;20040;-75
2023/02/17 23:52:46;;;;;;;1.10;0.70;;;;;;;9.87;85.65;98014.69;10469223;28;20041;-75
2023/02/17 23:58:07;;;;;;;1.42;0.73;;;;;;;9.70;85.34;98003.63;10483162;28;20112;-75
